Time;durP1;ratioP1;P1;durP2;ratioP2;P2;SDS_P1;SDS_P2;PMS_P1;PMS_P2;Temp;Humidity;BMP_temperature;BMP_pressure;BME280_temperature;BME280_humidity;BME280_pressure;Samples;Min_cycle;Max_cycle;Signal;HPM_P1;HPM_P2
2021/10/31 00:01:58;;;;;;;25.68;15.65;;;;;;;10.52;55.04;100291.64;1793557;80;25676;-48
2021/10/31 00:04:26;;;;;;;24.55;15.93;;;;;;;10.51;55.31;100294.65;1793535;80;25467;-46
2021/10/31 00:06:55;;;;;;;23.70;15.08;;;;;;;10.48;55.11;100297.41;1793586;80;25615;-45
2021/10/31 00:09:22;;;;;;;28.00;16.52;;;;;;;10.44;55.13;100293.73;1793657;80;27436;-47
2021/10/31 00:11:49;;;;;;;24.05;16.10;;;;;;;10.39;55.30;100295.99;1793565;79;26051;-47
2021/10/31 00:14:15;;;;;;;26.90;15.03;;;;;;;10.37;55.35;100304.97;1793751;80;25255;-47
2021/10/31 00:16:42;;;;;;;25.60;15.60;;;;;;;10.34;55.65;100306.93;1793670;80;25588;-49
2021/10/31 00:19:09;;;;;;;28.50;15.18;;;;;;;10.33;55.61;100307.23;1793749;80;25493;-47
2021/10/31 00:21:36;;;;;;;26.35;17.05;;;;;;;10.29;55.90;100302.41;1793783;80;27327;-45
2021/10/31 00:24:04;;;;;;;26.07;15.13;;;;;;;10.26;55.79;100302.22;1793701;80;26050;-48
2021/10/31 00:26:34;;;;;;;30.27;16.15;;;;;;;10.23;56.01;100300.12;1793738;80;25687;-46
2021/10/31 00:29:00;;;;;;;29.85;15.98;;;;;;;10.20;56.24;100302.08;1793686;80;25552;-46
2021/10/31 00:31:27;;;;;;;26.30;15.28;;;;;;;10.16;56.42;100296.49;1793714;80;25647;-47
2021/10/31 00:33:53;;;;;;;30.52;16.60;;;;;;;10.12;56.67;100290.11;1793700;79;27485;-46
2021/10/31 00:36:20;;;;;;;26.45;16.32;;;;;;;10.09;56.68;100292.86;1793662;80;25606;-51
2021/10/31 00:38:47;;;;;;;27.30;16.07;;;;;;;10.07;56.72;100296.98;1793720;80;25693;-51
2021/10/31 00:41:14;;;;;;;27.22;15.68;;;;;;;10.05;56.65;100294.59;1793780;80;26194;-51
2021/10/31 00:43:42;;;;;;;26.97;14.65;;;;;;;10.03;56.79;100299.50;1793722;80;25622;-49
2021/10/31 00:46:10;;;;;;;23.87;15.70;;;;;;;10.00;57.36;100304.16;1793948;80;28168;-50
2021/10/31 00:48:36;;;;;;;29.50;16.35;;;;;;;9.98;57.09;100300.17;1793600;80;25874;-47
2021/10/31 00:51:07;;;;;;;27.55;15.98;;;;;;;9.94;57.45;100299.17;1793805;80;25567;-50
2021/10/31 00:53:37;;;;;;;24.65;15.93;;;;;;;9.92;57.03;100304.87;1793706;77;25671;-46
2021/10/31 00:56:05;;;;;;;;;;;;;;;9.89;57.51;100302.77;1796393;79;25545;-48
2021/10/31 00:58:32;;;;;;;26.10;16.48;;;;;;;9.86;57.46;100302.84;1793698;80;27478;-47
2021/10/31 01:00:59;;;;;;;25.10;16.02;;;;;;;9.80;57.64;100297.30;1793638;80;25652;-46
2021/10/31 01:03:26;;;;;;;24.18;15.70;;;;;;;9.72;58.20;100298.83;1793703;79;25541;-50
2021/10/31 01:05:58;;;;;;;25.35;16.40;;;;;;;9.72;57.82;100297.48;1793620;80;25571;-46
2021/10/31 01:08:39;;;;;;;25.02;16.37;;;;;;;9.69;58.02;100291.87;1792076;80;25627;-51
2021/10/31 01:11:32;;;;;;;25.15;15.80;;;;;;;9.69;58.03;100289.18;1793808;80;27506;-57
2021/10/31 01:14:42;;;;;;;27.42;16.35;;;;;;;9.65;58.17;100297.09;1793615;79;25494;-54
2021/10/31 01:17:37;;;;;;;29.80;16.62;;;;;;;9.64;58.57;100295.48;1793590;79;25535;-56
2021/10/31 01:20:44;;;;;;;26.25;15.60;;;;;;;9.63;58.45;100286.33;1793655;79;25562;-57
2021/10/31 01:23:33;;;;;;;25.27;16.57;;;;;;;9.60;58.39;100301.22;1793563;79;25709;-55
2021/10/31 01:26:40;;;;;;;28.52;16.52;;;;;;;9.58;58.39;100283.73;1793856;80;27539;-57
2021/10/31 01:29:24;;;;;;;32.65;16.60;;;;;;;9.55;58.52;100294.58;1793611;80;25588;-57
2021/10/31 01:32:08;;;;;;;29.30;17.50;;;;;;;9.52;58.94;100291.94;1790929;80;25702;-57
2021/10/31 01:35:05;;;;;;;27.22;16.80;;;;;;;9.49;58.64;100297.94;1777312;80;25771;-57
2021/10/31 01:38:01;;;;;;;26.62;17.10;;;;;;;9.49;58.58;100297.94;1720366;83;25588;-56
2021/10/31 01:40:41;;;;;;;31.85;17.10;;;;;;;9.46;58.94;100289.64;1720339;83;27513;-57
2021/10/31 01:43:31;;;;;;;28.38;16.42;;;;;;;9.43;58.72;100298.34;1664341;86;25586;-57
2021/10/31 01:46:09;;;;;;;25.40;15.58;;;;;;;9.41;58.89;100301.34;1663518;86;25571;-57
2021/10/31 01:48:59;;;;;;;26.07;16.42;;;;;;;9.38;58.96;100306.55;1664348;86;25866;-57
2021/10/31 01:51:33;;;;;;;;;;;;;;;9.33;59.03;100301.50;1664641;86;25890;-57
2021/10/31 01:54:04;;;;;;;28.60;16.50;;;;;;;9.32;59.05;100290.45;1683533;84;27517;-55
2021/10/31 01:56:34;;;;;;;27.82;16.52;;;;;;;9.28;59.23;100298.08;1689359;84;27040;-57
2021/10/31 01:59:09;;;;;;;;;;;;;;;9.25;59.26;100298.70;1691926;84;25752;-56
2021/10/31 02:01:39;;;;;;;25.90;16.05;;;;;;;9.21;59.62;100303.91;1689449;84;25634;-56
2021/10/31 02:04:13;;;;;;;24.87;16.37;;;;;;;9.19;59.43;100304.73;1689517;84;25630;-55
2021/10/31 02:06:46;;;;;;;26.70;15.88;;;;;;;9.14;60.04;100311.05;1689536;84;27646;-56
2021/10/31 02:09:17;;;;;;;28.45;15.60;;;;;;;9.12;59.79;100306.47;1689353;83;25603;-56
2021/10/31 02:11:45;;;;;;;25.82;15.55;;;;;;;9.08;59.72;100300.09;1699552;84;25579;-56
2021/10/31 02:14:13;;;;;;;28.40;16.55;;;;;;;9.07;59.81;100301.17;1714549;82;25605;-56
2021/10/31 02:16:42;;;;;;;27.93;16.00;;;;;;;9.06;60.25;100309.03;1733366;82;25502;-56
2021/10/31 02:19:22;;;;;;;26.33;15.80;;;;;;;9.06;60.14;100309.56;1733368;82;27457;-56
2021/10/31 02:21:57;;;;;;;31.45;16.20;;;;;;;9.06;60.16;100315.78;1792453;79;26155;-56
2021/10/31 02:24:25;;;;;;;27.55;16.40;;;;;;;9.04;60.33;100309.06;1795365;79;25452;-57
2021/10/31 02:26:52;;;;;;;26.20;17.30;;;;;;;9.04;60.32;100306.37;1795301;79;25565;-57
2021/10/31 02:29:19;;;;;;;30.90;17.87;;;;;;;9.05;60.50;100306.08;1795308;79;25521;-57
2021/10/31 02:31:46;;;;;;;29.70;17.35;;;;;;;9.04;60.47;100307.19;1795288;79;27430;-57
2021/10/31 02:34:14;;;;;;;29.40;17.52;;;;;;;9.02;60.97;100312.06;1795298;79;25590;-56
2021/10/31 02:36:41;;;;;;;25.92;18.37;;;;;;;9.01;60.86;100311.00;1795278;79;25622;-55
2021/10/31 02:39:09;;;;;;;26.90;18.15;;;;;;;8.98;60.62;100305.67;1795346;78;25553;-55
2021/10/31 02:41:36;;;;;;;29.98;17.60;;;;;;;8.95;60.92;100313.80;1795323;79;25461;-55
2021/10/31 02:44:06;;;;;;;32.70;18.32;;;;;;;8.92;61.54;100313.06;1795332;79;27523;-55
2021/10/31 02:46:36;;;;;;;29.20;18.40;;;;;;;8.91;61.17;100301.22;1795380;79;25570;-54
2021/10/31 02:49:05;;;;;;;26.42;16.93;;;;;;;8.85;62.29;100311.28;1795328;79;25594;-56
2021/10/31 02:52:14;;;;;;;32.58;19.57;;;;;;;8.84;61.62;100317.79;1795376;79;26185;-57
2021/10/31 02:54:58;;;;;;;31.80;19.07;;;;;;;8.82;61.53;100316.47;1744696;81;25598;-55
2021/10/31 02:57:58;;;;;;;28.00;18.27;;;;;;;8.77;61.65;100314.13;1746137;82;27979;-55
2021/10/31 03:00:29;;;;;;;36.05;19.35;;;;;;;8.76;61.92;100319.81;1746131;82;25926;-55
2021/10/31 03:02:57;;;;;;;30.62;17.48;;;;;;;8.71;62.23;100315.86;1746548;82;25644;-57
2021/10/31 03:05:25;;;;;;;29.23;17.40;;;;;;;8.70;62.22;100322.33;1746464;82;26132;-56
2021/10/31 03:07:56;;;;;;;27.20;16.25;;;;;;;8.70;62.24;100320.45;1746537;82;25629;-56
2021/10/31 03:10:23;;;;;;;29.87;16.67;;;;;;;8.68;62.33;100321.27;1746481;82;27493;-56
2021/10/31 03:12:50;;;;;;;28.50;16.48;;;;;;;8.68;63.10;100323.18;1746356;82;27290;-55
2021/10/31 03:15:18;;;;;;;31.60;17.45;;;;;;;8.67;62.30;100329.69;1746477;82;25744;-55
2021/10/31 03:17:45;;;;;;;33.75;17.40;;;;;;;8.66;62.40;100333.47;1746439;82;25730;-56
2021/10/31 03:20:12;;;;;;;32.28;17.67;;;;;;;8.65;62.69;100331.85;1746577;82;25509;-55
2021/10/31 03:22:39;;;;;;;32.40;18.35;;;;;;;8.67;62.84;100330.48;1746457;82;27485;-56
2021/10/31 03:25:07;;;;;;;30.57;18.62;;;;;;;8.67;62.68;100331.03;1746405;82;25651;-57
2021/10/31 03:27:34;;;;;;;31.00;19.23;;;;;;;8.67;63.12;100331.83;1746498;82;25833;-57
2021/10/31 03:30:01;;;;;;;30.77;19.42;;;;;;;8.65;62.56;100329.98;1775785;78;25714;-55
2021/10/31 03:32:28;;;;;;;32.70;19.62;;;;;;;8.64;63.29;100328.92;1824635;78;25588;-55
2021/10/31 03:34:54;;;;;;;34.85;20.35;;;;;;;8.60;63.02;100332.20;1824766;78;27449;-55
2021/10/31 03:37:21;;;;;;;34.00;20.60;;;;;;;8.59;63.04;100332.49;1824698;78;25626;-55
2021/10/31 03:39:47;;;;;;;38.05;19.75;;;;;;;8.57;62.90;100331.44;1824611;77;25670;-55
2021/10/31 03:42:14;;;;;;;34.43;19.27;;;;;;;8.54;62.74;100336.06;1824598;78;25537;-55
2021/10/31 03:44:49;;;;;;;32.17;19.55;;;;;;;8.54;62.98;100337.41;1824658;78;25410;-56
2021/10/31 03:47:22;;;;;;;32.80;19.95;;;;;;;8.53;63.09;100336.36;1824730;78;29704;-56
2021/10/31 03:49:50;;;;;;;33.83;19.57;;;;;;;8.49;62.99;100334.80;1824499;78;25474;-56
2021/10/31 03:52:17;;;;;;;35.00;19.25;;;;;;;8.47;62.95;100333.50;1824573;78;25594;-57
2021/10/31 03:54:43;;;;;;;32.85;20.70;;;;;;;8.41;62.99;100340.29;1824533;78;25624;-57
2021/10/31 03:57:10;;;;;;;32.00;19.50;;;;;;;8.39;63.18;100333.58;1824707;78;25578;-57
2021/10/31 03:59:37;;;;;;;31.10;18.10;;;;;;;8.37;63.40;100345.20;1824658;78;27439;-57
2021/10/31 04:02:05;;;;;;;30.65;15.63;;;;;;;8.33;63.43;100338.80;1824541;78;25797;-57
2021/10/31 04:04:32;;;;;;;34.27;17.73;;;;;;;8.30;63.47;100342.08;1824764;78;25430;-57
2021/10/31 04:06:59;;;;;;;31.07;17.32;;;;;;;8.30;63.67;100347.47;1824595;78;25509;-57
2021/10/31 04:09:25;;;;;;;30.77;17.37;;;;;;;8.30;63.67;100348.27;1824599;77;25650;-55
2021/10/31 04:11:52;;;;;;;29.42;16.73;;;;;;;8.32;63.80;100349.32;1824590;78;27529;-55
2021/10/31 04:14:19;;;;;;;30.43;18.65;;;;;;;8.35;63.49;100352.78;1824588;78;25627;-55
2021/10/31 04:16:47;;;;;;;31.25;18.95;;;;;;;8.37;63.67;100345.20;1824735;78;25420;-57
2021/10/31 04:19:14;;;;;;;26.97;18.95;;;;;;;8.39;63.71;100353.80;1824634;78;25647;-55
2021/10/31 04:21:41;;;;;;;32.78;19.23;;;;;;;8.39;63.76;100355.96;1824685;78;25404;-55
2021/10/31 04:24:07;;;;;;;32.50;19.27;;;;;;;8.39;63.59;100353.80;1824639;78;27468;-55
2021/10/31 04:26:34;;;;;;;33.80;19.40;;;;;;;8.37;63.68;100354.64;1824590;78;25967;-55
2021/10/31 04:29:00;;;;;;;32.23;18.40;;;;;;;8.34;63.65;100353.34;1824676;78;25627;-55
2021/10/31 04:31:26;;;;;;;36.80;20.45;;;;;;;8.32;63.88;100349.32;1824584;78;25658;-55
2021/10/31 04:33:53;;;;;;;32.33;18.65;;;;;;;8.29;63.76;100353.94;1824633;78;25470;-55
2021/10/31 04:36:20;;;;;;;33.53;19.85;;;;;;;8.28;63.78;100352.36;1824666;78;27540;-55
2021/10/31 04:38:52;;;;;;;34.00;19.12;;;;;;;8.24;63.69;100345.41;1824610;77;26049;-55
2021/10/31 04:41:16;;;;;;;31.97;20.80;;;;;;;8.20;63.74;100347.86;1824351;78;25719;-55
2021/10/31 04:43:42;;;;;;;29.30;18.60;;;;;;;8.17;64.04;100342.25;1824590;78;25534;-55
2021/10/31 04:46:14;;;;;;;36.00;19.25;;;;;;;8.16;64.04;100346.84;1824693;78;25684;-55
2021/10/31 04:48:40;;;;;;;32.63;16.87;;;;;;;8.13;64.29;100344.73;1824651;78;27455;-55
2021/10/31 04:51:07;;;;;;;30.72;18.05;;;;;;;8.12;64.05;100342.33;1824538;78;25482;-55
2021/10/31 04:53:34;;;;;;;33.42;17.98;;;;;;;8.08;64.29;100345.36;1824518;76;25433;-55
2021/10/31 04:56:00;;;;;;;31.68;18.17;;;;;;;8.06;64.38;100342.16;1824743;78;26365;-55
2021/10/31 04:58:28;;;;;;;29.00;16.75;;;;;;;8.03;64.28;100344.31;1824910;78;25579;-55
2021/10/31 05:00:55;;;;;;;30.43;18.40;;;;;;;8.02;64.32;100344.64;1824834;78;28501;-55
2021/10/31 05:03:22;;;;;;;33.13;18.30;;;;;;;8.04;64.35;100351.32;1824718;78;25747;-55
2021/10/31 05:05:48;;;;;;;31.20;18.07;;;;;;;8.04;64.24;100343.23;1824826;78;25689;-55
2021/10/31 05:08:15;;;;;;;33.33;20.17;;;;;;;8.04;64.45;100353.22;1824742;78;25542;-55
2021/10/31 05:10:41;;;;;;;33.25;19.17;;;;;;;8.02;64.36;100349.47;1824761;77;25225;-57
2021/10/31 05:13:08;;;;;;;34.95;20.05;;;;;;;8.00;64.42;100351.66;1824763;78;27668;-55
2021/10/31 05:15:34;;;;;;;34.00;20.10;;;;;;;7.99;65.10;100347.91;1824684;78;25598;-55
2021/10/31 05:18:01;;;;;;;29.37;17.65;;;;;;;7.96;64.81;100351.96;1824749;78;25469;-55
2021/10/31 05:20:28;;;;;;;35.17;18.77;;;;;;;7.92;64.95;100345.56;1824721;78;26039;-55
2021/10/31 05:22:54;;;;;;;32.58;19.57;;;;;;;7.91;64.88;100362.80;1824763;78;25666;-55
2021/10/31 05:25:21;;;;;;;34.35;19.23;;;;;;;7.89;65.03;100361.50;1824765;78;27549;-55
2021/10/31 05:27:48;;;;;;;28.65;19.23;;;;;;;7.87;64.98;100361.79;1824654;78;25488;-55
2021/10/31 05:30:15;;;;;;;31.07;18.17;;;;;;;7.86;65.05;100366.36;1804489;78;25546;-55
2021/10/31 05:32:42;;;;;;;30.70;18.45;;;;;;;7.83;65.40;100367.48;1824704;78;25495;-56
2021/10/31 05:35:11;;;;;;;31.30;19.10;;;;;;;7.81;65.29;100373.16;1824785;78;25457;-56
2021/10/31 05:37:45;;;;;;;33.28;19.07;;;;;;;7.80;65.12;100375.61;1824902;78;27137;-56
2021/10/31 05:40:14;;;;;;;33.85;17.37;;;;;;;7.79;65.12;100376.69;1824408;77;25595;-56
2021/10/31 05:42:43;;;;;;;32.88;17.95;;;;;;;7.75;65.20;100370.84;1824854;78;25476;-55
2021/10/31 05:45:11;;;;;;;34.53;18.50;;;;;;;7.76;65.37;100368.38;1824726;78;25570;-56
2021/10/31 05:47:41;;;;;;;28.77;18.23;;;;;;;7.73;65.12;100362.22;1824782;78;25489;-58
2021/10/31 05:50:10;;;;;;;31.93;19.02;;;;;;;7.70;65.33;100369.00;1824883;78;29685;-56
2021/10/31 05:52:38;;;;;;;;;;;;;;;7.71;65.68;100367.89;1827355;78;25711;-56
2021/10/31 05:55:08;;;;;;;29.87;17.57;;;;;;;7.73;65.61;100364.91;1810873;78;25558;-56
2021/10/31 05:57:35;;;;;;;34.35;17.60;;;;;;;7.72;65.54;100360.08;1830807;78;25548;-55
2021/10/31 06:00:06;;;;;;;26.12;17.32;;;;;;;7.73;65.72;100365.73;1830896;78;25454;-57
2021/10/31 06:02:35;;;;;;;27.85;16.42;;;;;;;7.77;65.89;100364.61;1830873;78;27435;-55
2021/10/31 06:05:05;;;;;;;25.77;18.17;;;;;;;7.81;65.96;100369.11;1830903;78;32773;-56
2021/10/31 06:07:34;;;;;;;29.35;19.02;;;;;;;7.85;66.18;100372.84;1830968;78;25583;-56
2021/10/31 06:10:03;;;;;;;32.33;19.02;;;;;;;7.86;65.85;100371.73;1830865;77;25568;-55
2021/10/31 06:12:29;;;;;;;32.30;19.48;;;;;;;7.92;65.94;100377.09;1830839;78;25663;-56
2021/10/31 06:14:57;;;;;;;30.45;18.20;;;;;;;7.91;65.66;100365.50;1830820;78;27564;-55
2021/10/31 06:17:24;;;;;;;30.08;18.65;;;;;;;7.94;65.81;100374.91;1830757;78;25684;-56
2021/10/31 06:19:51;;;;;;;26.97;18.48;;;;;;;7.97;65.73;100377.03;1830792;78;25496;-55
2021/10/31 06:22:17;;;;;;;32.15;17.90;;;;;;;7.99;65.88;100378.33;1830785;78;25591;-55
2021/10/31 06:24:44;;;;;;;31.37;19.05;;;;;;;8.03;65.63;100380.69;1830839;78;25540;-55
2021/10/31 06:27:13;;;;;;;28.52;18.45;;;;;;;8.06;65.66;100387.95;1830903;77;28316;-55
2021/10/31 06:29:39;;;;;;;32.83;19.73;;;;;;;8.11;65.68;100386.54;1831053;78;25466;-55
2021/10/31 06:32:07;;;;;;;31.15;18.75;;;;;;;8.22;65.65;100383.95;1830788;78;25602;-55
2021/10/31 06:34:34;;;;;;;29.42;18.07;;;;;;;8.33;65.51;100391.36;1830763;78;26195;-55
2021/10/31 06:37:00;;;;;;;29.72;18.42;;;;;;;8.41;65.34;100394.20;1830801;78;25466;-55
2021/10/31 06:39:27;;;;;;;30.48;18.98;;;;;;;8.50;65.26;100403.02;1830796;77;28218;-55
2021/10/31 06:41:53;;;;;;;34.78;18.73;;;;;;;8.57;65.00;100391.31;1830695;78;25791;-55
2021/10/31 06:44:20;;;;;;;32.90;18.85;;;;;;;8.64;64.81;100399.82;1830776;78;25558;-54
2021/10/31 06:46:46;;;;;;;30.23;18.65;;;;;;;8.73;64.76;100397.25;1830741;78;27636;-54
2021/10/31 06:49:13;;;;;;;26.33;17.52;;;;;;;8.87;64.46;100398.66;1830910;78;25576;-54
2021/10/31 06:51:40;;;;;;;27.93;17.80;;;;;;;8.97;64.22;100399.30;1830803;78;27647;-55
2021/10/31 06:54:09;;;;;;;27.25;16.80;;;;;;;9.10;64.17;100396.94;1826486;77;27377;-55
2021/10/31 06:56:37;;;;;;;30.32;17.20;;;;;;;9.23;63.77;100400.22;1793655;80;25508;-54
2021/10/31 06:59:04;;;;;;;31.57;17.20;;;;;;;9.40;63.77;100405.05;1793590;80;26030;-54
2021/10/31 07:01:31;;;;;;;27.13;17.10;;;;;;;9.61;63.28;100404.66;1793666;80;25631;-57
2021/10/31 07:03:57;;;;;;;27.62;17.17;;;;;;;9.87;62.66;100404.39;1793628;80;27481;-54
2021/10/31 07:06:24;;;;;;;27.62;15.65;;;;;;;10.10;62.31;100409.33;1793549;80;25594;-54
2021/10/31 07:08:51;;;;;;;25.40;16.57;;;;;;;10.27;61.70;100414.11;1793585;80;25614;-54
2021/10/31 07:11:17;;;;;;;29.57;16.80;;;;;;;10.43;61.09;100406.48;1793550;80;25606;-54
2021/10/31 07:13:44;;;;;;;27.50;15.70;;;;;;;10.62;60.76;100405.52;1793586;80;25598;-53
2021/10/31 07:16:10;;;;;;;38.98;17.17;;;;;;;10.88;60.90;100415.73;1793602;80;27499;-56
2021/10/31 07:18:37;;;;;;;27.50;17.00;;;;;;;11.19;59.80;100403.05;1793521;80;25411;-56
2021/10/31 07:21:04;;;;;;;25.02;16.52;;;;;;;11.54;60.22;100426.79;1793594;80;25573;-54
2021/10/31 07:23:31;;;;;;;26.42;16.32;;;;;;;11.85;58.15;100413.22;1793639;80;27724;-57
2021/10/31 07:25:58;;;;;;;26.80;17.67;;;;;;;12.05;58.49;100435.45;1793652;80;25676;-56
2021/10/31 07:28:25;;;;;;;32.53;17.80;;;;;;;12.24;56.85;100414.83;1793627;79;28088;-56
2021/10/31 07:30:53;;;;;;;28.85;17.02;;;;;;;12.48;58.04;100420.62;1793543;80;25510;-55
2021/10/31 07:33:20;;;;;;;27.20;17.53;;;;;;;12.78;56.62;100432.19;1793828;80;25632;-56
2021/10/31 07:35:46;;;;;;;23.25;15.85;;;;;;;12.89;56.08;100423.97;1793575;80;25617;-56
2021/10/31 07:38:13;;;;;;;27.27;16.55;;;;;;;13.02;55.33;100429.75;1793601;80;25413;-56
2021/10/31 07:40:40;;;;;;;25.88;16.48;;;;;;;13.28;55.15;100419.42;1793531;80;27507;-56
2021/10/31 07:43:07;;;;;;;24.30;16.62;;;;;;;13.61;54.66;100417.49;1793517;79;25602;-55
2021/10/31 07:45:34;;;;;;;28.10;16.00;;;;;;;13.94;54.36;100427.16;1793173;80;25745;-55
2021/10/31 07:48:00;;;;;;;24.25;16.32;;;;;;;14.28;53.93;100422.63;1793538;80;25526;-55
2021/10/31 07:50:34;;;;;;;23.22;16.50;;;;;;;14.66;54.15;100423.66;1793603;80;25538;-56
2021/10/31 07:53:07;;;;;;;21.57;15.50;;;;;;;15.09;52.89;100424.63;1793541;80;27482;-56
2021/10/31 07:55:37;;;;;;;23.32;16.62;;;;;;;15.42;51.14;100425.73;1810855;77;25890;-55
2021/10/31 07:58:04;;;;;;;;;;;;;;;15.46;49.63;100422.00;1827365;78;25563;-55
2021/10/31 08:00:32;;;;;;;20.50;14.83;;;;;;;15.56;49.24;100424.86;1824618;78;25545;-56
2021/10/31 08:03:00;;;;;;;21.77;15.45;;;;;;;15.62;49.19;100428.14;1824703;78;25500;-55
2021/10/31 08:05:28;;;;;;;24.65;15.53;;;;;;;15.74;48.71;100426.00;1824625;78;28059;-57
2021/10/31 08:07:57;;;;;;;24.77;16.03;;;;;;;15.82;48.13;100423.76;1824809;78;25546;-56
2021/10/31 08:10:24;;;;;;;24.35;16.80;;;;;;;16.01;48.52;100421.23;1824719;77;25583;-57
2021/10/31 08:12:51;;;;;;;24.35;15.28;;;;;;;16.31;48.03;100418.25;1824565;78;26250;-56
2021/10/31 08:15:46;;;;;;;26.30;16.50;;;;;;;16.51;44.45;100426.61;1911565;74;27679;-57
2021/10/31 08:18:14;;;;;;;24.05;15.72;;;;;;;16.56;46.46;100420.32;1894160;75;25571;-58
2021/10/31 08:20:42;;;;;;;22.95;16.10;;;;;;;16.67;45.03;100413.00;1894224;75;27361;-57
2021/10/31 08:23:12;;;;;;;22.13;15.40;;;;;;;16.63;44.63;100414.27;1821461;78;25830;-56
2021/10/31 08:25:39;;;;;;;22.98;15.13;;;;;;;16.69;44.78;100417.57;1819862;78;25504;-58
2021/10/31 08:28:09;;;;;;;20.50;14.87;;;;;;;16.70;45.12;100424.61;1821342;78;25556;-56
2021/10/31 08:30:39;;;;;;;23.73;15.10;;;;;;;16.99;44.97;100429.77;1821400;78;25585;-57
2021/10/31 08:33:20;;;;;;;21.37;14.83;;;;;;;17.14;43.27;100424.67;1821335;78;29473;-56
2021/10/31 08:35:48;;;;;;;21.15;14.68;;;;;;;17.28;44.76;100422.88;1821287;78;25375;-57
2021/10/31 08:38:16;;;;;;;23.30;14.93;;;;;;;17.52;43.94;100421.36;1821403;78;25394;-58
2021/10/31 08:40:46;;;;;;;22.32;14.30;;;;;;;17.70;43.91;100427.83;1821321;78;25424;-58
2021/10/31 08:43:15;;;;;;;20.02;14.63;;;;;;;17.83;44.15;100408.81;1821366;78;25515;-58
2021/10/31 08:45:44;;;;;;;19.90;14.33;;;;;;;18.09;43.07;100421.15;1821595;78;27501;-58
2021/10/31 08:48:13;;;;;;;23.45;14.10;;;;;;;18.23;42.49;100415.19;1821297;78;25363;-58
2021/10/31 08:50:41;;;;;;;;;;;;;;;18.33;42.19;100409.73;1824065;78;25519;-59
2021/10/31 08:53:13;;;;;;;23.75;14.60;;;;;;;18.35;42.24;100404.69;1821344;78;25544;-58
2021/10/31 08:55:40;;;;;;;21.68;14.58;;;;;;;18.64;42.21;100410.17;1789064;80;25436;-58
2021/10/31 08:58:10;;;;;;;22.42;13.32;;;;;;;18.98;41.74;100411.25;1821372;78;27422;-59
2021/10/31 09:00:40;;;;;;;22.15;13.75;;;;;;;19.23;41.13;100407.59;1821480;78;25571;-60
2021/10/31 09:03:08;;;;;;;17.75;13.30;;;;;;;19.51;39.81;100409.27;1821358;78;25555;-59
2021/10/31 09:05:37;;;;;;;24.60;13.85;;;;;;;19.96;40.21;100417.23;1821299;78;27271;-58
2021/10/31 09:08:08;;;;;;;20.40;14.87;;;;;;;20.41;38.46;100402.33;1821511;78;25514;-57
2021/10/31 09:10:38;;;;;;;18.75;12.58;;;;;;;21.13;38.16;100408.67;1821343;78;27377;-58
2021/10/31 09:13:07;;;;;;;21.37;13.55;;;;;;;21.52;36.25;100410.21;1821277;78;25619;-58
2021/10/31 09:15:34;;;;;;;20.55;14.03;;;;;;;21.88;36.56;100409.09;1791649;78;25447;-59
2021/10/31 09:18:05;;;;;;;19.32;13.30;;;;;;;22.12;35.84;100404.94;1786433;80;25581;-58
2021/10/31 09:20:34;;;;;;;20.17;14.10;;;;;;;22.54;35.52;100401.62;1786520;80;25341;-59
2021/10/31 09:23:05;;;;;;;19.02;13.25;;;;;;;22.80;35.01;100400.30;1786460;80;27324;-58
2021/10/31 09:25:35;;;;;;;17.77;13.60;;;;;;;23.50;35.83;100398.08;1786200;80;25570;-57
2021/10/31 09:28:06;;;;;;;20.75;14.03;;;;;;;23.91;33.77;100412.07;1785914;80;25415;-58
2021/10/31 09:30:38;;;;;;;17.42;13.93;;;;;;;23.22;32.82;100402.38;1785842;80;25861;-58
2021/10/31 09:33:10;;;;;;;15.78;13.35;;;;;;;22.70;33.57;100393.00;1785941;80;25416;-58
2021/10/31 09:35:56;;;;;;;17.73;13.68;;;;;;;22.49;34.55;100387.41;1785942;80;27966;-58
2021/10/31 09:38:24;;;;;;;17.32;12.88;;;;;;;22.71;35.29;100391.84;1785708;80;25575;-58
2021/10/31 09:40:51;;;;;;;17.00;12.47;;;;;;;23.07;35.01;100387.00;1785762;80;25596;-58
2021/10/31 09:43:19;;;;;;;20.90;13.20;;;;;;;23.37;35.35;100380.33;1786156;80;25374;-58
2021/10/31 09:45:46;;;;;;;18.32;12.90;;;;;;;23.65;34.03;100385.84;1785938;80;25532;-58
2021/10/31 09:48:16;;;;;;;18.40;12.65;;;;;;;23.65;32.94;100387.79;1785904;80;27475;-58
2021/10/31 09:50:48;;;;;;;20.40;13.38;;;;;;;23.60;34.25;100384.86;1785813;80;25474;-59
2021/10/31 09:53:20;;;;;;;20.37;13.00;;;;;;;24.03;34.22;100370.20;1785957;80;25573;-59
2021/10/31 09:55:49;;;;;;;16.97;12.25;;;;;;;24.17;32.83;100374.30;1785893;80;25435;-59
2021/10/31 09:58:32;;;;;;;18.00;12.37;;;;;;;23.98;32.95;100365.87;1786093;80;25391;-58
2021/10/31 10:01:00;;;;;;;17.75;12.30;;;;;;;24.00;32.82;100369.63;1785746;80;27343;-57
2021/10/31 10:06:21;;;;;;;18.48;12.53;;;;;;;23.69;32.21;100376.17;1785931;80;25538;-57
2021/10/31 10:09:04;;;;;;;17.87;12.20;;;;;;;23.65;32.46;100372.60;1785791;80;25348;-58
2021/10/31 10:11:39;;;;;;;15.45;12.10;;;;;;;24.43;31.46;100378.55;1785925;80;25498;-56
2021/10/31 10:14:29;;;;;;;13.93;12.03;;;;;;;24.75;29.97;100368.53;1786358;79;28006;-56
2021/10/31 10:17:06;;;;;;;17.35;12.07;;;;;;;25.00;29.52;100375.91;1800925;79;25363;-58
2021/10/31 10:19:55;;;;;;;15.55;11.55;;;;;;;25.11;29.42;100371.06;1801035;79;25576;-59
2021/10/31 10:22:24;;;;;;;14.25;11.73;;;;;;;25.41;30.05;100366.91;1799450;79;25465;-58
2021/10/31 10:24:56;;;;;;;16.87;12.25;;;;;;;25.99;26.59;100374.86;1801059;79;25550;-58
2021/10/31 10:27:29;;;;;;;15.35;12.20;;;;;;;26.06;28.57;100362.91;1801041;79;27366;-58
2021/10/31 10:29:58;;;;;;;15.55;12.68;;;;;;;26.40;28.10;100365.66;1800928;79;25632;-59
2021/10/31 10:32:27;;;;;;;;;;;;;;;26.52;27.98;100362.15;1803666;79;25599;-59
2021/10/31 10:34:58;;;;;;;;;;;;;;;26.62;27.55;100354.28;1803617;79;25394;-58
2021/10/31 10:37:33;;;;;;;17.60;12.10;;;;;;;26.78;26.45;100353.09;1800997;79;25380;-59
2021/10/31 10:40:09;;;;;;;14.87;12.47;;;;;;;26.68;27.41;100359.59;1769678;79;27968;-59
2021/10/31 10:42:52;;;;;;;13.45;11.70;;;;;;;26.59;27.14;100357.27;1800922;79;25418;-59
2021/10/31 10:45:27;;;;;;;15.25;11.28;;;;;;;26.55;26.95;100353.78;1801072;79;25524;-60
2021/10/31 10:48:08;;;;;;;13.95;11.68;;;;;;;26.94;27.67;100351.06;1800975;79;25394;-59
2021/10/31 10:50:41;;;;;;;15.35;11.20;;;;;;;27.58;27.56;100345.07;1800996;79;25392;-59
2021/10/31 10:53:20;;;;;;;14.30;11.38;;;;;;;28.22;26.75;100340.09;1801004;79;27965;-59
2021/10/31 10:55:48;;;;;;;14.75;10.82;;;;;;;28.56;26.32;100334.83;1801003;79;25496;-59
2021/10/31 10:58:18;;;;;;;14.53;11.40;;;;;;;28.61;25.71;100332.92;1800928;79;25386;-60
2021/10/31 11:00:49;;;;;;;14.07;11.22;;;;;;;28.84;24.92;100331.38;1800942;79;25854;-58
2021/10/31 11:03:21;;;;;;;14.87;11.45;;;;;;;28.90;25.83;100322.52;1801042;79;25535;-59
2021/10/31 11:05:53;;;;;;;12.35;10.43;;;;;;;29.10;25.35;100338.52;1799626;79;28112;-60
2021/10/31 11:08:25;;;;;;;12.28;9.85;;;;;;;28.79;25.18;100313.01;1799317;79;25622;-60
2021/10/31 11:10:57;;;;;;;14.83;10.60;;;;;;;28.38;25.25;100323.44;1799947;79;25641;-59
2021/10/31 11:13:29;;;;;;;15.53;9.65;;;;;;;27.82;24.87;100310.30;1769946;79;25441;-59
2021/10/31 11:16:00;;;;;;;13.83;9.70;;;;;;;27.08;25.52;100315.36;1800891;79;25509;-59
2021/10/31 11:18:28;;;;;;;15.08;9.85;;;;;;;26.46;25.87;100307.16;1801015;79;27929;-60
2021/10/31 11:20:56;;;;;;;12.65;10.40;;;;;;;26.13;26.44;100297.69;1801145;79;25406;-60
2021/10/31 11:23:23;;;;;;;13.43;10.85;;;;;;;26.04;26.67;100295.42;1801041;79;25386;-59
2021/10/31 11:25:52;;;;;;;16.95;10.05;;;;;;;25.53;26.71;100302.70;1800996;79;25510;-59
2021/10/31 11:28:21;;;;;;;15.13;11.03;;;;;;;25.13;27.33;100300.87;1801263;79;25588;-60
2021/10/31 11:30:51;;;;;;;13.62;10.23;;;;;;;25.11;27.50;100295.73;1800974;79;27384;-59
2021/10/31 11:33:19;;;;;;;13.08;10.93;;;;;;;25.08;27.17;100300.73;1800888;79;25429;-59
2021/10/31 11:35:47;;;;;;;16.82;10.25;;;;;;;24.65;28.06;100293.34;1801141;79;25498;-59